Monday, November 19, 2018, 7:12 AM GMT
Back to Local

CYHZ, Halifax International Airport

Location: , , Canada Lat: 44.883
Local Time: 7:12 AM GMT ( 7:12 GMT) Lon: -63.5
Time Zone: GMT Elev: 475 ft

Show me the last for .
Show Decoded

2018-11-19 07:00 METAR CYHZ 190700Z 24003KT 15SM FEW140 M04/M08 A3026 RMK AS2 SLP257 =
2018-11-19 06:00 METAR CYHZ 190600Z 24004KT 15SM SCT140 M04/M07 A3027 RMK AS4 SLP259 =
2018-11-19 05:00 METAR CYHZ 190500Z 30002KT 15SM BKN087 BKN140 M04/M07 A3028 RMK AC5AS2 SLP262 =
2018-11-19 04:00 METAR CYHZ 190400Z 00000KT 15SM FEW030 BKN160 M04/M08 A3029 RMK SC1AS5 SLP265 =
2018-11-19 03:00 METAR CYHZ 190300Z 12005KT 15SM BKN140 M04/M09 A3028 RMK AS5 SLP264 =
2018-11-19 02:00 METAR CYHZ 190200Z 13004KT 15SM SCT150 M04/M08 A3030 RMK AC4 SLP271 =
2018-11-19 01:00 METAR CYHZ 190100Z 12003KT 15SM SKC M04/M08 A3030 RMK SLP270 =
2018-11-19 00:00 METAR CYHZ 190000Z 00000KT 15SM SKC M03/M08 A3030 RMK SLP269 =
2018-11-18 23:00 METAR CYHZ 182300Z 32003KT 15SM SKC M03/M08 A3030 RMK SLP269 =
2018-11-18 22:00 METAR CYHZ 182200Z 28004KT 15SM FEW040 M02/M08 A3029 RMK SC1 SLP266 =
2018-11-18 21:00 METAR CYHZ 182100Z 31004KT 15SM FEW040 FEW260 M02/M08 A3028 RMK SC1CI1 SC TR
                 SLP262 =
2018-11-18 20:00 METAR CYHZ 182000Z 29005KT 270V330 15SM FEW030 FEW260 M00/M09 A3027 RMK SC1CI1
                 SC TR CI TR SLP259 =
2018-11-18 19:00 METAR CYHZ 181900Z VRB02KT 15SM FEW035 M00/M10 A3026 RMK SC1 SLP255 =
2018-11-18 18:00 METAR CYHZ 181800Z 30009KT 260V320 15SM FEW035 00/M10 A3025 RMK SC1 SLP252 =
2018-11-18 17:00 METAR CYHZ 181700Z 33007KT 15SM FEW030 M00/M09 A3025 RMK CU1 SLP252 =
2018-11-18 16:00 METAR CYHZ 181600Z 33007KT 15SM FEW030 M01/M10 A3026 RMK CU1 SLP254 =
2018-11-18 15:00 METAR CYHZ 181500Z 35010KT 15SM FEW025 FEW250 M02/M08 A3026 RMK CU1CI1 SLP256 =
2018-11-18 14:00 METAR CYHZ 181400Z 34009G15KT 15SM FEW023 M02/M06 A3026 RMK CU2 SLP254 =
2018-11-18 13:00 METAR CYHZ 181300Z 33013KT 15SM FEW025 FEW070 M02/M06 A3024 RMK SC1AC1 SLP248 =
2018-11-18 12:00 METAR CYHZ 181200Z 32010KT 15SM FEW025 FEW070 M03/M05 A3020 RMK SC1AC1 SLP237 =
2018-11-18 11:00 METAR CYHZ 181100Z 31010KT 15SM FEW025 SCT070 M02/M05 A3017 RMK SC1AC2 SLP224 =
2018-11-18 10:00 METAR CYHZ 181000Z 33008KT 15SM SCT026 BKN080 M02/M04 A3013 RMK SC3AC2 SLP211 =
2018-11-18 09:00 METAR CYHZ 180900Z 30012KT 15SM BKN081 M00/M04 A3009 RMK AC6 SLP197 =
2018-11-18 08:00 METAR CYHZ 180800Z 28009KT 15SM OVC083 M01/M03 A3007 RMK AC8 SLP191 =

Support USWX by starting your Amazon purchase here.